Time;durP1;ratioP1;P1;durP2;ratioP2;P2;SDS_P1;SDS_P2;PMS_P1;PMS_P2;Temp;Humidity;BMP_temperature;BMP_pressure;BME280_temperature;BME280_humidity;BME280_pressure;Samples;Min_cycle;Max_cycle;Signal;HPM_P1;HPM_P2
2023/11/28 00:01:15;;;;;;;11.43;4.87;;;;;;;;;;5017499;28;20054;-66
2023/11/28 00:04:09;;;;;;;8.53;4.27;;;;;;;;;;5012980;28;20695;-59
2023/11/28 00:06:57;;;;;;;5.75;3.55;;;;;;;;;;5017728;28;22239;-60
2023/11/28 00:09:50;;;;;;;9.43;4.57;;;;;;;;;;5018021;28;20059;-67
2023/11/28 00:12:38;;;;;;;6.18;3.67;;;;;;;;;;5015478;28;20053;-66
2023/11/28 00:15:33;;;;;;;10.83;5.50;;;;;;;;;;5018650;28;20512;-66
2023/11/28 00:18:02;;;;;;;8.33;4.77;;;;;;;;;;5017979;28;20049;-66
2023/11/28 00:20:36;;;;;;;11.80;5.30;;;;;;;;;;5017822;28;20060;-65
2023/11/28 00:23:03;;;;;;;12.97;5.30;;;;;;;;;;5018984;28;20080;-66
2023/11/28 00:25:30;;;;;;;11.00;5.30;;;;;;;;;;5020458;28;20054;-67
2023/11/28 00:28:04;;;;;;;8.60;4.37;;;;;;;;;;5016957;28;20429;-66
2023/11/28 00:30:31;;;;;;;9.90;4.63;;;;;;;;;;5035100;28;20046;-66
2023/11/28 00:33:05;;;;;;;12.40;5.73;;;;;;;;;;5015882;28;20046;-57
2023/11/28 00:35:32;;;;;;;9.93;5.53;;;;;;;;;;5021001;28;20067;-57
2023/11/28 00:38:00;;;;;;;12.73;5.00;;;;;;;;;;5017646;28;20139;-57
2023/11/28 00:40:34;;;;;;;7.83;4.20;;;;;;;;;;5022086;28;20116;-55
2023/11/28 00:43:03;;;;;;;8.07;4.27;;;;;;;;;;5016575;28;20069;-58
2023/11/28 00:45:39;;;;;;;7.07;4.07;;;;;;;;;;5023837;28;20050;-61
2023/11/28 00:48:07;;;;;;;11.80;5.50;;;;;;;;;;5018786;28;20144;-57
2023/11/28 00:50:34;;;;;;;7.93;4.47;;;;;;;;;;5018196;28;20423;-59
2023/11/28 00:53:15;;;;;;;8.93;4.67;;;;;;;;;;5016480;28;20448;-58
2023/11/28 00:55:49;;;;;;;8.37;4.43;;;;;;;;;;5015293;28;20057;-57
2023/11/28 00:58:22;;;;;;;11.17;4.40;;;;;;;;;;5019507;28;20061;-59
2023/11/28 01:00:50;;;;;;;10.43;5.13;;;;;;;;;;5019124;28;20061;-60
2023/11/28 01:03:17;;;;;;;7.47;4.43;;;;;;;;;;5016011;28;20061;-60
2023/11/28 01:05:51;;;;;;;9.33;4.47;;;;;;;;;;5015732;28;20100;-66
2023/11/28 01:08:19;;;;;;;12.70;4.93;;;;;;;;;;5016935;28;20123;-67
2023/11/28 01:10:52;;;;;;;8.73;5.13;;;;;;;;;;5015134;28;20057;-66
2023/11/28 01:13:19;;;;;;;9.70;4.30;;;;;;;;;;5017506;28;20056;-67
2023/11/28 01:15:47;;;;;;;8.13;4.03;;;;;;;;;;5016438;28;20049;-67
2023/11/28 01:18:20;;;;;;;9.57;4.70;;;;;;;;;;5015178;28;20084;-66
2023/11/28 01:20:48;;;;;;;8.27;4.50;;;;;;;;;;5015048;28;20054;-51
2023/11/28 01:23:22;;;;;;;11.93;4.77;;;;;;;;;;5017693;28;20513;-55
2023/11/28 01:25:49;;;;;;;9.70;4.90;;;;;;;;;;5015512;28;20058;-51
2023/11/28 01:28:16;;;;;;;10.00;4.53;;;;;;;;;;5017759;28;20055;-51
2023/11/28 01:30:50;;;;;;;8.00;4.23;;;;;;;;;;5015337;28;20119;-61
2023/11/28 01:33:18;;;;;;;8.83;4.20;;;;;;;;;;5015253;28;20046;-58
2023/11/28 01:35:45;;;;;;;8.50;5.10;;;;;;;;;;5018628;28;20139;-60
2023/11/28 01:38:19;;;;;;;8.83;4.80;;;;;;;;;;5017282;28;20489;-60
2023/11/28 01:40:50;;;;;;;11.23;4.63;;;;;;;;;;5017917;28;20496;-58
2023/11/28 01:43:24;;;;;;;9.98;3.83;;;;;;;;;;5015836;28;20057;-57
2023/11/28 01:45:52;;;;;;;9.40;4.50;;;;;;;;;;5022855;28;20978;-58
2023/11/28 01:48:19;;;;;;;9.07;4.73;;;;;;;;;;5014386;28;20065;-58
2023/11/28 01:50:54;;;;;;;8.50;4.07;;;;;;;;;;5011871;28;20057;-58
2023/11/28 01:53:22;;;;;;;6.03;4.10;;;;;;;;;;5012014;28;20062;-57
2023/11/28 01:56:05;;;;;;;7.63;4.05;;;;;;;;;;5016529;28;20096;-57
2023/11/28 01:58:32;;;;;;;6.97;4.40;;;;;;;;;;5015076;28;20049;-58
2023/11/28 02:01:07;;;;;;;6.77;3.93;;;;;;;;;;5015569;28;20475;-64
2023/11/28 02:03:36;;;;;;;10.47;4.40;;;;;;;;;;5021135;28;20471;-64
2023/11/28 02:06:11;;;;;;;7.73;4.43;;;;;;;;;;5019330;28;20104;-66
2023/11/28 02:08:38;;;;;;;7.87;4.17;;;;;;;;;;5014357;28;20122;-66
2023/11/28 02:11:05;;;;;;;;;;;;;;;;;;5017575;28;21875;-66
2023/11/28 02:13:39;;;;;;;14.63;5.10;;;;;;;;;;5019452;28;19928;-66
2023/11/28 02:16:17;;;;;;;9.33;4.67;;;;;;;;;;5016427;28;20132;-66
2023/11/28 02:18:51;;;;;;;8.60;4.30;;;;;;;;;;5017046;28;20060;-59
2023/11/28 02:21:18;;;;;;;9.00;4.33;;;;;;;;;;5015315;28;20140;-59
2023/11/28 02:23:45;;;;;;;11.07;4.10;;;;;;;;;;5017654;28;20057;-58
2023/11/28 02:26:25;;;;;;;8.07;4.50;;;;;;;;;;5016419;28;20080;-61
2023/11/28 02:28:53;;;;;;;7.60;4.00;;;;;;;;;;5016235;28;20057;-64
2023/11/28 02:31:27;;;;;;;8.10;4.77;;;;;;;;;;5017625;28;20081;-64
2023/11/28 02:33:55;;;;;;;9.23;4.67;;;;;;;;;;5016462;28;20049;-65
2023/11/28 02:36:29;;;;;;;8.37;3.90;;;;;;;;;;5020186;28;20064;-65
2023/11/28 02:38:57;;;;;;;8.50;4.20;;;;;;;;;;5016875;28;20172;-64
2023/11/28 02:41:24;;;;;;;;;;;;;;;;;;5019380;28;20100;-64
2023/11/28 02:43:59;;;;;;;9.07;3.60;;;;;;;;;;5016630;28;19968;-64
2023/11/28 02:46:26;;;;;;;8.67;4.30;;;;;;;;;;5020882;28;20064;-64
2023/11/28 02:49:00;;;;;;;7.23;3.40;;;;;;;;;;5020839;28;20061;-64
2023/11/28 02:51:28;;;;;;;6.60;3.53;;;;;;;;;;5020634;28;20710;-64
2023/11/28 02:53:55;;;;;;;8.70;3.50;;;;;;;;;;5019053;28;20057;-65
2023/11/28 02:56:29;;;;;;;5.07;2.63;;;;;;;;;;5020357;28;20464;-51
2023/11/28 02:58:56;;;;;;;8.33;3.53;;;;;;;;;;5017368;28;20103;-53
2023/11/28 03:01:30;;;;;;;8.27;3.67;;;;;;;;;;5016300;28;20555;-56
2023/11/28 03:03:58;;;;;;;5.30;3.30;;;;;;;;;;5023169;28;20099;-54
2023/11/28 03:06:25;;;;;;;;;;;;;;;;;;5019466;28;21022;-56
2023/11/28 03:08:59;;;;;;;4.90;2.47;;;;;;;;;;5015899;28;19925;-58
2023/11/28 03:11:26;;;;;;;5.47;3.63;;;;;;;;;;5016184;28;20061;-58
2023/11/28 03:13:53;;;;;;;;;;;;;;;;;;5014647;28;20484;-65
2023/11/28 03:16:27;;;;;;;6.23;3.30;;;;;;;;;;5013935;28;21231;-65
2023/11/28 03:18:55;;;;;;;5.77;3.37;;;;;;;;;;5018978;28;20206;-65
2023/11/28 03:21:28;;;;;;;10.43;3.57;;;;;;;;;;5019654;28;20057;-67
2023/11/28 03:23:56;;;;;;;8.33;4.20;;;;;;;;;;5016909;28;20460;-60
2023/11/28 03:26:23;;;;;;;4.77;3.10;;;;;;;;;;5020264;28;20049;-61
2023/11/28 03:28:57;;;;;;;5.43;3.13;;;;;;;;;;5019062;28;20719;-58
2023/11/28 03:31:24;;;;;;;5.40;3.67;;;;;;;;;;5022220;28;20504;-58
2023/11/28 03:33:58;;;;;;;6.37;3.50;;;;;;;;;;5020930;28;20061;-58
2023/11/28 03:36:26;;;;;;;7.10;3.43;;;;;;;;;;5012341;28;20168;-59
2023/11/28 03:38:54;;;;;;;6.17;3.23;;;;;;;;;;5018174;28;20508;-58
2023/11/28 03:41:28;;;;;;;4.97;2.67;;;;;;;;;;5014550;28;20049;-57
2023/11/28 03:43:55;;;;;;;5.57;3.30;;;;;;;;;;5015875;28;20115;-68
2023/11/28 03:46:30;;;;;;;6.53;3.10;;;;;;;;;;5032547;28;20061;-67
2023/11/28 03:48:57;;;;;;;5.77;3.30;;;;;;;;;;5017818;28;20053;-68
2023/11/28 03:51:24;;;;;;;;;;;;;;;;;;5017274;28;20045;-67
2023/11/28 03:54:11;;;;;;;4.43;2.67;;;;;;;;;;5016225;28;21142;-65
2023/11/28 03:56:45;;;;;;;6.83;3.20;;;;;;;;;;5014004;28;20096;-59
2023/11/28 03:59:13;;;;;;;8.83;2.93;;;;;;;;;;5022348;28;20589;-59
2023/11/28 04:01:40;;;;;;;10.17;3.10;;;;;;;;;;5019384;28;20508;-57
2023/11/28 04:04:13;;;;;;;4.90;2.43;;;;;;;;;;5015877;28;20057;-57
2023/11/28 04:06:41;;;;;;;6.73;2.83;;;;;;;;;;5018311;28;20077;-59
2023/11/28 04:09:08;;;;;;;4.83;2.80;;;;;;;;;;5021189;28;20459;-58
2023/11/28 04:11:42;;;;;;;3.80;2.80;;;;;;;;;;5017391;28;20053;-65
2023/11/28 04:14:16;;;;;;;3.60;2.70;;;;;;;;;;5020012;28;20054;-65
2023/11/28 04:16:50;;;;;;;9.47;3.90;;;;;;;;;;5017610;28;20072;-65
2023/11/28 04:19:17;;;;;;;4.77;2.83;;;;;;;;;;5019319;28;20060;-65
2023/11/28 04:21:45;;;;;;;7.60;3.13;;;;;;;;;;5019981;28;21818;-57
2023/11/28 04:24:18;;;;;;;5.20;2.93;;;;;;;;;;5018540;28;20045;-56
2023/11/28 04:26:45;;;;;;;5.70;3.23;;;;;;;;;;5015924;28;20061;-57
2023/11/28 04:29:19;;;;;;;4.63;2.67;;;;;;;;;;5021252;28;20489;-57
2023/11/28 04:31:47;;;;;;;4.97;3.10;;;;;;;;;;5017385;28;20295;-57
2023/11/28 04:34:15;;;;;;;4.10;2.70;;;;;;;;;;5018286;28;20045;-56
2023/11/28 04:36:49;;;;;;;5.33;3.30;;;;;;;;;;5020008;28;20065;-57
2023/11/28 04:39:16;;;;;;;5.93;3.00;;;;;;;;;;5019115;28;20053;-65
2023/11/28 04:41:50;;;;;;;10.27;3.13;;;;;;;;;;5016930;28;20479;-65
2023/11/28 04:44:18;;;;;;;5.67;3.33;;;;;;;;;;5017514;28;20049;-65
2023/11/28 04:46:45;;;;;;;4.73;2.77;;;;;;;;;;5019381;28;20061;-65
2023/11/28 04:49:20;;;;;;;3.90;2.80;;;;;;;;;;5017878;28;20050;-57
2023/11/28 04:51:47;;;;;;;5.40;2.77;;;;;;;;;;5016902;28;20057;-49
2023/11/28 04:54:28;;;;;;;8.73;3.03;;;;;;;;;;5015759;28;20182;-48
2023/11/28 04:57:02;;;;;;;8.57;3.87;;;;;;;;;;5016285;28;20057;-48
2023/11/28 04:59:37;;;;;;;5.47;3.00;;;;;;;;;;5011652;28;20061;-49
2023/11/28 05:02:04;;;;;;;4.73;2.90;;;;;;;;;;5020343;28;20053;-51
2023/11/28 05:04:31;;;;;;;6.90;2.83;;;;;;;;;;5016684;28;20076;-51
2023/11/28 05:07:05;;;;;;;10.57;3.27;;;;;;;;;;5018082;28;20077;-68
2023/11/28 05:09:33;;;;;;;6.77;2.13;;;;;;;;;;5016525;28;20084;-68
2023/11/28 05:12:08;;;;;;;4.43;2.77;;;;;;;;;;5016574;28;20867;-67
2023/11/28 05:14:36;;;;;;;4.50;2.77;;;;;;;;;;5016674;28;20532;-68
2023/11/28 05:17:04;;;;;;;4.87;3.00;;;;;;;;;;5011690;28;20616;-58
2023/11/28 05:19:38;;;;;;;7.90;3.10;;;;;;;;;;5009037;28;20060;-60
2023/11/28 05:22:06;;;;;;;3.10;2.13;;;;;;;;;;5013623;28;20057;-51
2023/11/28 05:24:46;;;;;;;5.50;3.00;;;;;;;;;;5017190;28;20064;-50
2023/11/28 05:27:13;;;;;;;5.80;3.23;;;;;;;;;;5014322;28;20605;-48
2023/11/28 05:29:47;;;;;;;4.33;2.33;;;;;;;;;;5015146;28;20065;-51
2023/11/28 05:32:21;;;;;;;5.67;3.10;;;;;;;;;;5018627;28;20054;-51
2023/11/28 05:34:48;;;;;;;5.80;3.20;;;;;;;;;;5017071;28;20060;-52
2023/11/28 05:37:16;;;;;;;19.57;3.23;;;;;;;;;;5023336;28;20393;-57
2023/11/28 05:39:49;;;;;;;4.77;2.83;;;;;;;;;;5013966;28;20476;-58
2023/11/28 05:42:17;;;;;;;2.37;1.70;;;;;;;;;;5013789;28;20103;-58
2023/11/28 05:44:51;;;;;;;4.77;3.00;;;;;;;;;;5008565;28;20068;-59
2023/11/28 05:47:18;;;;;;;5.97;2.90;;;;;;;;;;5014315;28;20065;-65
2023/11/28 05:49:46;;;;;;;5.90;3.07;;;;;;;;;;5005417;28;20501;-54
2023/11/28 05:52:21;;;;;;;6.77;3.37;;;;;;;;;;5010420;28;20136;-56
2023/11/28 05:55:01;;;;;;;4.60;3.13;;;;;;;;;;5011521;28;20049;-57
2023/11/28 05:57:35;;;;;;;7.30;3.40;;;;;;;;;;5014281;28;20057;-56
2023/11/28 06:00:04;;;;;;;5.50;2.93;;;;;;;;;;5012847;28;20054;-54
2023/11/28 06:02:32;;;;;;;6.10;2.40;;;;;;;;;;5017426;28;20499;-56
2023/11/28 06:05:07;;;;;;;5.53;3.20;;;;;;;;;;5019633;28;20069;-50
2023/11/28 06:07:34;;;;;;;4.83;3.07;;;;;;;;;;5020931;28;20059;-47
2023/11/28 06:10:13;;;;;;;6.10;2.73;;;;;;;;;;5020434;28;20072;-50
2023/11/28 06:12:40;;;;;;;5.10;2.97;;;;;;;;;;5017510;28;20053;-50
2023/11/28 06:15:07;;;;;;;6.80;3.10;;;;;;;;;;5016815;28;20111;-57
2023/11/28 06:17:41;;;;;;;6.80;3.37;;;;;;;;;;5018842;28;20061;-65
2023/11/28 06:20:14;;;;;;;7.73;3.10;;;;;;;;;;5019735;28;20402;-64
2023/11/28 06:22:49;;;;;;;6.93;2.80;;;;;;;;;;5030123;28;20467;-65
2023/11/28 06:25:16;;;;;;;7.10;3.10;;;;;;;;;;5019653;28;20053;-64
2023/11/28 06:27:43;;;;;;;5.67;2.60;;;;;;;;;;5015072;28;20057;-65
2023/11/28 06:30:17;;;;;;;5.53;3.03;;;;;;;;;;5019949;28;20057;-64
2023/11/28 06:32:45;;;;;;;3.67;2.47;;;;;;;;;;5017328;28;20100;-59
2023/11/28 06:35:20;;;;;;;5.90;2.70;;;;;;;;;;5018898;28;20143;-59
2023/11/28 06:37:47;;;;;;;5.67;2.67;;;;;;;;;;5018943;28;20141;-59
2023/11/28 06:40:16;;;;;;;4.07;2.80;;;;;;;;;;5019332;28;20136;-58
2023/11/28 06:42:49;;;;;;;5.70;3.10;;;;;;;;;;5016136;28;20081;-56
2023/11/28 06:45:16;;;;;;;5.90;3.13;;;;;;;;;;5017877;28;20464;-68
2023/11/28 06:47:51;;;;;;;6.57;3.27;;;;;;;;;;5019722;28;20049;-64
2023/11/28 06:50:18;;;;;;;5.27;3.33;;;;;;;;;;5017468;28;20514;-65
2023/11/28 06:52:46;;;;;;;3.17;1.93;;;;;;;;;;5019026;28;20088;-65
2023/11/28 06:55:26;;;;;;;4.67;2.87;;;;;;;;;;5028551;28;20057;-64
2023/11/28 06:57:53;;;;;;;7.70;3.07;;;;;;;;;;5015403;28;20054;-64
2023/11/28 07:00:28;;;;;;;6.53;4.17;;;;;;;;;;5016036;28;20100;-65
2023/11/28 07:02:55;;;;;;;5.90;2.97;;;;;;;;;;5018438;28;21126;-50
2023/11/28 07:05:22;;;;;;;5.43;2.70;;;;;;;;;;5017618;28;20053;-47
2023/11/28 07:07:56;;;;;;;4.27;2.97;;;;;;;;;;5015516;28;20064;-49
2023/11/28 07:10:24;;;;;;;8.57;3.30;;;;;;;;;;5030477;28;20137;-46
2023/11/28 07:12:59;;;;;;;4.93;3.00;;;;;;;;;;5016912;28;20057;-48
2023/11/28 07:15:27;;;;;;;5.97;3.30;;;;;;;;;;5018597;28;20166;-48
2023/11/28 07:17:54;;;;;;;5.70;2.83;;;;;;;;;;5019476;28;20057;-48
2023/11/28 07:20:29;;;;;;;3.73;2.40;;;;;;;;;;5028655;28;22836;-46
2023/11/28 07:22:57;;;;;;;8.43;3.13;;;;;;;;;;5018927;28;20111;-47
2023/11/28 07:25:30;;;;;;;4.87;3.00;;;;;;;;;;5019463;28;20073;-52
2023/11/28 07:27:57;;;;;;;6.87;2.70;;;;;;;;;;5017788;28;20056;-53
2023/11/28 07:30:31;;;;;;;6.37;3.13;;;;;;;;;;5018450;28;20053;-58
2023/11/28 07:32:58;;;;;;;7.80;3.23;;;;;;;;;;5018310;28;20198;-58
2023/11/28 07:35:26;;;;;;;6.17;3.00;;;;;;;;;;5018741;28;20474;-57
2023/11/28 07:38:02;;;;;;;5.50;3.13;;;;;;;;;;5020537;28;20084;-58
2023/11/28 07:40:32;;;;;;;8.43;3.27;;;;;;;;;;5021071;28;20144;-66
2023/11/28 07:43:06;;;;;;;6.20;2.75;;;;;;;;;;5020009;28;20049;-60
2023/11/28 07:45:34;;;;;;;6.10;3.07;;;;;;;;;;5021177;28;20057;-60
2023/11/28 07:48:03;;;;;;;4.77;3.30;;;;;;;;;;5022551;28;20065;-59
2023/11/28 07:50:38;;;;;;;8.23;2.90;;;;;;;;;;5018738;28;20504;-59
2023/11/28 07:53:06;;;;;;;6.67;2.73;;;;;;;;;;5018143;28;20103;-59
2023/11/28 07:55:47;;;;;;;5.13;2.80;;;;;;;;;;5020436;28;20049;-59
2023/11/28 07:58:14;;;;;;;2.67;2.07;;;;;;;;;;5018635;28;20046;-67
2023/11/28 08:00:49;;;;;;;4.50;2.63;;;;;;;;;;5018747;28;20072;-66
2023/11/28 08:03:16;;;;;;;6.13;3.20;;;;;;;;;;5021795;28;20108;-67
2023/11/28 08:05:44;;;;;;;6.67;3.10;;;;;;;;;;5022364;28;20053;-68
2023/11/28 08:08:17;;;;;;;4.10;3.07;;;;;;;;;;5015744;28;20053;-59
2023/11/28 08:10:51;;;;;;;5.23;2.60;;;;;;;;;;5021694;28;20116;-59
2023/11/28 08:13:19;;;;;;;5.67;3.00;;;;;;;;;;5016183;28;20063;-59
2023/11/28 08:15:48;;;;;;;5.80;3.00;;;;;;;;;;5020169;28;20053;-59
2023/11/28 08:18:22;;;;;;;3.97;2.70;;;;;;;;;;5018350;28;20084;-59
2023/11/28 08:20:50;;;;;;;4.33;3.00;;;;;;;;;;5018694;28;20072;-58
2023/11/28 08:23:24;;;;;;;4.47;3.20;;;;;;;;;;5015141;28;20066;-58
2023/11/28 08:25:51;;;;;;;5.53;2.70;;;;;;;;;;5021271;28;20057;-59
2023/11/28 08:28:19;;;;;;;9.67;3.17;;;;;;;;;;5021205;28;20053;-56
2023/11/28 08:30:52;;;;;;;5.17;2.60;;;;;;;;;;5019785;28;20057;-57
2023/11/28 08:33:20;;;;;;;14.97;3.13;;;;;;;;;;5018833;28;20061;-58
2023/11/28 08:35:53;;;;;;;5.17;2.67;;;;;;;;;;5022712;28;20585;-57
2023/11/28 08:38:21;;;;;;;5.33;2.83;;;;;;;;;;5022812;28;20053;-57
2023/11/28 08:40:52;;;;;;;4.87;3.10;;;;;;;;;;5021858;28;20061;-55
2023/11/28 08:43:25;;;;;;;6.57;3.27;;;;;;;;;;5014097;28;20069;-57
2023/11/28 08:45:53;;;;;;;4.87;2.87;;;;;;;;;;5018364;28;20726;-56
2023/11/28 08:48:27;;;;;;;6.37;3.40;;;;;;;;;;5017450;28;20065;-57
2023/11/28 08:50:54;;;;;;;6.50;3.10;;;;;;;;;;5016259;28;20053;-56
2023/11/28 08:53:21;;;;;;;5.07;3.17;;;;;;;;;;5015583;28;20053;-57
2023/11/28 08:56:02;;;;;;;5.10;2.80;;;;;;;;;;5018102;28;20132;-59
2023/11/28 08:58:29;;;;;;;4.77;2.70;;;;;;;;;;5015345;28;20148;-60
2023/11/28 09:01:03;;;;;;;6.20;3.10;;;;;;;;;;5017595;28;21018;-59
2023/11/28 09:03:31;;;;;;;5.80;3.07;;;;;;;;;;5019128;28;20057;-59
2023/11/28 09:05:58;;;;;;;5.83;3.30;;;;;;;;;;5019195;28;20068;-68
2023/11/28 09:08:32;;;;;;;5.20;3.40;;;;;;;;;;5017803;28;20091;-64
2023/11/28 09:11:02;;;;;;;6.13;3.83;;;;;;;;;;5019296;28;20414;-64
2023/11/28 09:13:36;;;;;;;9.80;2.85;;;;;;;;;;5012472;28;20076;-64
2023/11/28 09:16:08;;;;;;;5.10;3.00;;;;;;;;;;5015139;28;20100;-65
2023/11/28 09:18:36;;;;;;;5.93;2.97;;;;;;;;;;5016012;28;20061;-65
2023/11/28 09:21:12;;;;;;;5.53;3.23;;;;;;;;;;5015923;28;20084;-64
2023/11/28 09:23:40;;;;;;;6.43;3.20;;;;;;;;;;5017234;28;20107;-59
2023/11/28 09:26:13;;;;;;;5.73;3.20;;;;;;;;;;5019932;28;20507;-61
2023/11/28 09:28:41;;;;;;;5.07;2.80;;;;;;;;;;5017544;28;20533;-60
2023/11/28 09:31:08;;;;;;;5.27;3.17;;;;;;;;;;5017618;28;20059;-59
2023/11/28 09:33:42;;;;;;;4.23;3.00;;;;;;;;;;5015777;28;20081;-59
2023/11/28 09:36:10;;;;;;;5.63;3.40;;;;;;;;;;5019174;28;20085;-67
2023/11/28 09:38:44;;;;;;;6.87;3.23;;;;;;;;;;5018567;28;20060;-67
2023/11/28 09:41:13;;;;;;;6.07;3.20;;;;;;;;;;5021204;28;20057;-68
2023/11/28 09:43:40;;;;;;;5.37;3.10;;;;;;;;;;5013901;28;20848;-68
2023/11/28 09:46:15;;;;;;;7.80;3.77;;;;;;;;;;5016814;28;20059;-67
2023/11/28 09:48:44;;;;;;;5.60;3.40;;;;;;;;;;5013269;28;20965;-70
2023/11/28 09:51:12;;;;;;;8.33;4.17;;;;;;;;;;5018661;28;20061;-67
2023/11/28 09:53:46;;;;;;;4.53;2.60;;;;;;;;;;5019719;28;20057;-56
2023/11/28 09:56:27;;;;;;;9.23;3.47;;;;;;;;;;4737736;28;8169569;-58
2023/11/28 09:59:02;;;;;;;5.82;3.40;;;;;;;;;;5017746;28;20061;-58
2023/11/28 10:01:30;;;;;;;5.50;2.67;;;;;;;;;;5019840;28;20058;-56
2023/11/28 10:04:05;;;;;;;5.83;2.70;;;;;;;;;;5013221;28;20574;-68
2023/11/28 10:06:32;;;;;;;4.47;2.80;;;;;;;;;;5018670;28;20060;-58
2023/11/28 10:09:08;;;;;;;4.90;2.73;;;;;;;;;;5018269;28;20049;-55
2023/11/28 10:11:38;;;;;;;6.10;3.60;;;;;;;;;;5018529;28;20072;-56
2023/11/28 10:14:06;;;;;;;7.30;3.13;;;;;;;;;;5020962;28;20064;-58
2023/11/28 10:16:45;;;;;;;4.83;2.90;;;;;;;;;;5013583;28;20056;-57
2023/11/28 10:19:13;;;;;;;7.27;3.17;;;;;;;;;;5018101;28;20107;-58
2023/11/28 10:21:51;;;;;;;4.77;2.50;;;;;;;;;;5018126;28;20103;-48
2023/11/28 10:24:20;;;;;;;3.10;2.40;;;;;;;;;;5018303;28;20065;-50
2023/11/28 10:26:47;;;;;;;5.47;2.73;;;;;;;;;;5019275;28;20130;-50
2023/11/28 10:29:21;;;;;;;5.50;2.60;;;;;;;;;;5022031;28;20107;-49
2023/11/28 10:31:49;;;;;;;4.63;2.77;;;;;;;;;;5014599;28;20095;-63
2023/11/28 10:34:22;;;;;;;4.50;2.63;;;;;;;;;;5016331;28;20049;-60
2023/11/28 10:36:50;;;;;;;6.47;2.77;;;;;;;;;;5014971;28;20149;-58
2023/11/28 10:39:20;;;;;;;;;;;;;;;;;;5017525;28;20119;-58
2023/11/28 10:41:54;;;;;;;3.43;2.57;;;;;;;;;;5016608;28;19971;-58
2023/11/28 10:44:25;;;;;;;4.17;2.33;;;;;;;;;;5021037;28;20634;-58
2023/11/28 10:47:00;;;;;;;5.87;2.67;;;;;;;;;;5012774;28;20058;-56
2023/11/28 10:49:28;;;;;;;4.63;2.50;;;;;;;;;;5016979;28;20058;-58
2023/11/28 10:51:56;;;;;;;6.57;3.73;;;;;;;;;;5017464;28;20183;-56
2023/11/28 10:54:50;;;;;;;6.27;2.60;;;;;;;;;;5015168;28;20127;-57
2023/11/28 10:57:27;;;;;;;4.50;2.47;;;;;;;;;;5016495;28;20062;-56
2023/11/28 11:00:06;;;;;;;5.57;2.75;;;;;;;;;;5018106;28;20063;-59
2023/11/28 11:02:33;;;;;;;5.20;3.10;;;;;;;;;;5015864;28;20057;-59
2023/11/28 11:05:00;;;;;;;5.30;3.00;;;;;;;;;;5020085;28;20056;-58
2023/11/28 11:07:35;;;;;;;5.67;3.10;;;;;;;;;;5018523;28;20460;-56
2023/11/28 11:10:07;;;;;;;3.77;2.97;;;;;;;;;;5015197;28;20045;-57
2023/11/28 11:12:41;;;;;;;5.17;3.10;;;;;;;;;;5033417;28;20111;-57
2023/11/28 11:15:14;;;;;;;4.73;2.57;;;;;;;;;;5022092;28;20060;-59
2023/11/28 11:18:07;;;;;;;4.13;2.80;;;;;;;;;;5022458;28;20148;-60
2023/11/28 11:20:36;;;;;;;5.67;2.30;;;;;;;;;;5021599;28;20184;-60
2023/11/28 11:23:14;;;;;;;3.60;2.50;;;;;;;;;;5023390;28;20053;-59
2023/11/28 11:25:43;;;;;;;2.73;2.17;;;;;;;;;;5015347;28;20065;-60
2023/11/28 11:28:16;;;;;;;5.80;3.07;;;;;;;;;;5021119;28;20049;-56
2023/11/28 11:30:45;;;;;;;4.17;2.83;;;;;;;;;;5020379;28;20123;-60
2023/11/28 11:33:24;;;;;;;5.53;3.07;;;;;;;;;;5021534;28;21496;-59
2023/11/28 11:36:01;;;;;;;5.20;2.70;;;;;;;;;;5037985;28;20724;-59
2023/11/28 11:38:36;;;;;;;4.47;2.00;;;;;;;;;;5021472;28;20057;-60
2023/11/28 11:41:08;;;;;;;3.27;2.27;;;;;;;;;;5020742;28;20356;-59
2023/11/28 11:43:42;;;;;;;5.37;3.20;;;;;;;;;;5033064;28;20060;-59
2023/11/28 11:46:13;;;;;;;4.93;2.97;;;;;;;;;;5022419;28;20139;-48
2023/11/28 11:48:41;;;;;;;3.17;2.20;;;;;;;;;;5021771;28;20144;-50
2023/11/28 11:51:15;;;;;;;4.50;2.50;;;;;;;;;;5022001;28;20180;-51
2023/11/28 11:53:43;;;;;;;4.57;2.40;;;;;;;;;;5022251;28;20121;-49
2023/11/28 11:56:26;;;;;;;3.57;2.33;;;;;;;;;;5022657;28;20065;-57
2023/11/28 11:58:54;;;;;;;3.63;2.40;;;;;;;;;;5020357;28;20061;-56
2023/11/28 12:01:31;;;;;;;4.57;2.50;;;;;;;;;;5021248;28;20065;-57
2023/11/28 12:04:03;;;;;;;4.83;2.57;;;;;;;;;;5019011;28;20064;-56
2023/11/28 12:06:37;;;;;;;4.63;2.43;;;;;;;;;;5019609;28;20538;-56
2023/11/28 12:09:10;;;;;;;5.77;2.87;;;;;;;;;;5019196;28;20451;-56
2023/11/28 12:11:37;;;;;;;;;;;;;;;;;;5025473;28;20053;-56
2023/11/28 12:14:11;;;;;;;4.67;3.07;;;;;;;;;;5016348;28;20059;-58
2023/11/28 12:16:48;;;;;;;3.87;2.40;;;;;;;;;;5019631;28;20061;-59
2023/11/28 12:19:23;;;;;;;4.47;2.40;;;;;;;;;;5016437;28;20061;-58
2023/11/28 12:21:50;;;;;;;3.67;2.50;;;;;;;;;;5015166;28;20053;-59
2023/11/28 12:24:17;;;;;;;3.90;2.63;;;;;;;;;;5036950;28;20049;-57
2023/11/28 12:26:51;;;;;;;5.53;3.03;;;;;;;;;;5021442;28;20107;-65
2023/11/28 12:29:18;;;;;;;;;;;;;;;;;;5021833;28;20107;-59
2023/11/28 12:31:56;;;;;;;4.10;2.60;;;;;;;;;;5018886;28;19925;-59
2023/11/28 12:34:26;;;;;;;5.63;2.80;;;;;;;;;;5013771;28;20061;-60
2023/11/28 12:37:21;;;;;;;5.40;2.90;;;;;;;;;;5014820;28;20053;-60
2023/11/28 12:40:09;;;;;;;4.93;2.30;;;;;;;;;;5017610;28;20053;-59
2023/11/28 12:43:02;;;;;;;4.47;2.50;;;;;;;;;;5019535;28;20049;-64
2023/11/28 12:46:02;;;;;;;6.97;3.13;;;;;;;;;;5019067;28;20053;-63
2023/11/28 12:48:56;;;;;;;4.10;2.70;;;;;;;;;;5021014;28;20060;-64
2023/11/28 12:51:44;;;;;;;10.83;3.20;;;;;;;;;;5021560;28;20053;-64
2023/11/28 12:54:50;;;;;;;5.13;2.73;;;;;;;;;;5017911;28;20116;-64
2023/11/28 12:57:44;;;;;;;4.67;3.00;;;;;;;;;;5015693;28;20057;-67
2023/11/28 13:00:38;;;;;;;9.00;2.87;;;;;;;;;;5021210;28;20057;-67
2023/11/28 13:03:34;;;;;;;7.10;2.80;;;;;;;;;;5022161;28;22442;-67
2023/11/28 13:06:29;;;;;;;6.37;2.93;;;;;;;;;;5018581;28;20132;-66
2023/11/28 13:09:40;;;;;;;5.60;2.77;;;;;;;;;;5021847;28;20086;-67
2023/11/28 13:12:33;;;;;;;5.03;2.87;;;;;;;;;;5022314;28;20057;-59
2023/11/28 13:15:40;;;;;;;3.97;2.70;;;;;;;;;;5020335;28;20061;-60
2023/11/28 13:18:28;;;;;;;4.27;2.80;;;;;;;;;;5019693;28;20061;-59
2023/11/28 13:21:23;;;;;;;4.07;2.50;;;;;;;;;;5019175;28;21029;-49
2023/11/28 13:24:12;;;;;;;3.92;2.22;;;;;;;;;;5016711;28;20057;-64
2023/11/28 13:27:02;;;;;;;5.03;2.87;;;;;;;;;;5021638;28;20061;-66
2023/11/28 13:29:50;;;;;;;4.67;3.10;;;;;;;;;;5021867;28;20045;-63
2023/11/28 13:32:43;;;;;;;5.17;3.10;;;;;;;;;;5021656;28;20049;-64
2023/11/28 13:35:31;;;;;;;4.28;2.85;;;;;;;;;;5020865;28;20050;-64
2023/11/28 13:38:26;;;;;;;5.00;2.97;;;;;;;;;;5020615;28;20057;-63
2023/11/28 13:41:18;;;;;;;7.10;3.30;;;;;;;;;;5021005;28;20053;-50
2023/11/28 13:44:06;;;;;;;6.67;3.57;;;;;;;;;;5018810;28;20145;-47
2023/11/28 13:47:00;;;;;;;5.70;3.07;;;;;;;;;;5018717;28;20056;-48
2023/11/28 13:49:47;;;;;;;4.10;2.83;;;;;;;;;;5015889;28;20542;-49
2023/11/28 13:52:41;;;;;;;5.10;2.90;;;;;;;;;;5020793;28;20053;-64
2023/11/28 13:55:36;;;;;;;6.20;3.17;;;;;;;;;;5011673;28;22058;-64
2023/11/28 13:58:30;;;;;;;5.67;3.13;;;;;;;;;;5014288;28;20520;-63
2023/11/28 14:01:16;;;;;;;4.23;2.63;;;;;;;;;;5019333;28;20091;-64
2023/11/28 14:04:11;;;;;;;6.60;3.10;;;;;;;;;;5015390;28;20065;-64
2023/11/28 14:06:57;;;;;;;4.30;2.63;;;;;;;;;;5019216;28;20104;-64
2023/11/28 14:09:51;;;;;;;4.20;2.83;;;;;;;;;;5019420;28;20115;-58
2023/11/28 14:12:38;;;;;;;4.13;2.37;;;;;;;;;;5019664;28;20061;-57
2023/11/28 14:15:33;;;;;;;6.53;3.13;;;;;;;;;;5012537;28;20579;-59
2023/11/28 14:18:20;;;;;;;4.70;2.90;;;;;;;;;;5014963;28;20049;-56
2023/11/28 14:21:15;;;;;;;7.60;3.00;;;;;;;;;;5014937;28;20061;-68
2023/11/28 14:24:02;;;;;;;;;;;;;;;;;;5021964;28;20057;-67
2023/11/28 14:26:55;;;;;;;5.73;3.03;;;;;;;;;;5017939;28;20050;-67
2023/11/28 14:29:50;;;;;;;6.80;3.37;;;;;;;;;;5016869;28;20463;-65
2023/11/28 14:32:44;;;;;;;7.70;3.00;;;;;;;;;;5018005;28;20053;-68
2023/11/28 14:35:34;;;;;;;6.33;3.23;;;;;;;;;;5019337;28;20048;-68
2023/11/28 14:38:31;;;;;;;6.07;3.60;;;;;;;;;;5010455;28;20051;-59
2023/11/28 14:41:18;;;;;;;6.43;3.17;;;;;;;;;;5018978;28;20061;-56
2023/11/28 14:44:11;;;;;;;7.57;3.33;;;;;;;;;;5018793;28;20049;-57
2023/11/28 14:46:59;;;;;;;7.10;3.40;;;;;;;;;;5020146;28;20061;-57
2023/11/28 14:49:53;;;;;;;11.10;4.07;;;;;;;;;;5020552;28;20072;-49
2023/11/28 14:52:46;;;;;;;8.87;5.03;;;;;;;;;;5017507;28;20060;-48
2023/11/28 14:55:45;;;;;;;11.10;4.03;;;;;;;;;;5013768;28;20603;-49
2023/11/28 14:58:39;;;;;;;6.90;3.40;;;;;;;;;;5020852;28;20061;-50
2023/11/28 15:01:29;;;;;;;7.80;3.10;;;;;;;;;;5020822;28;20146;-50
2023/11/28 15:04:22;;;;;;;5.33;3.33;;;;;;;;;;5016244;28;20101;-51
2023/11/28 15:07:10;;;;;;;4.37;2.23;;;;;;;;;;5020987;28;20059;-63
2023/11/28 15:10:03;;;;;;;6.43;3.17;;;;;;;;;;5023434;28;20338;-63
2023/11/28 15:12:51;;;;;;;5.93;3.38;;;;;;;;;;5024553;28;20075;-64
2023/11/28 15:15:44;;;;;;;5.57;2.87;;;;;;;;;;5023773;28;20049;-61
2023/11/28 15:18:32;;;;;;;2.90;2.03;;;;;;;;;;5021138;28;21007;-60
2023/11/28 15:21:25;;;;;;;5.93;2.80;;;;;;;;;;5021177;28;20061;-60
2023/11/28 15:24:13;;;;;;;9.03;3.13;;;;;;;;;;5018011;28;20068;-59
2023/11/28 15:27:06;;;;;;;5.17;2.83;;;;;;;;;;5022409;28;20053;-59
2023/11/28 15:29:58;;;;;;;5.97;3.00;;;;;;;;;;5022163;28;20057;-58
2023/11/28 15:32:47;;;;;;;4.47;2.73;;;;;;;;;;5019209;28;20579;-60